createdAt,value
2018-08-19T00:01:19.203Z,17.67
2018-08-19T00:03:48.537Z,18.67
2018-08-19T00:06:20.101Z,15.00
2018-08-19T00:08:49.519Z,15.00
2018-08-19T00:11:20.322Z,13.00
2018-08-19T00:13:56.661Z,12.00
2018-08-19T00:16:27.739Z,11.00
2018-08-19T00:18:57.861Z,11.33
2018-08-19T00:21:29.217Z,10.33
2018-08-19T00:23:59.468Z,10.00
2018-08-19T00:26:29.688Z,11.67
2018-08-19T00:29:00.757Z,11.50
2018-08-19T00:31:34.554Z,13.25
2018-08-19T00:34:05.165Z,11.00
2018-08-19T00:36:36.533Z,11.00
2018-08-19T00:39:08.661Z,14.00
2018-08-19T00:41:40.532Z,11.00
2018-08-19T00:44:10.718Z,10.33
2018-08-19T00:46:42.596Z,8.60
2018-08-19T00:49:14.453Z,10.00
2018-08-19T00:51:49.740Z,11.67
2018-08-19T00:54:20.488Z,11.00
2018-08-19T00:56:56.002Z,10.00
2018-08-19T00:59:30.696Z,10.00
2018-08-19T01:02:01.341Z,10.00
2018-08-19T01:04:31.449Z,11.00
2018-08-19T01:07:03.217Z,12.33
2018-08-19T01:09:34.266Z,11.00
2018-08-19T01:12:05.979Z,9.67
2018-08-19T01:14:38.447Z,11.00
2018-08-19T01:17:10.165Z,12.00
2018-08-19T01:19:42.943Z,13.75
2018-08-19T01:22:14.567Z,12.33
2018-08-19T01:24:45.050Z,12.33
2018-08-19T01:27:15.995Z,14.00
2018-08-19T01:29:46.293Z,10.67
2018-08-19T01:32:19.184Z,13.00
2018-08-19T01:34:49.018Z,12.33
2018-08-19T01:37:20.051Z,14.33
2018-08-19T01:39:51.936Z,15.00
2018-08-19T01:42:22.272Z,13.00
2018-08-19T01:44:52.130Z,14.00
2018-08-19T01:47:22.386Z,14.67
2018-08-19T01:49:51.814Z,15.67
2018-08-19T01:52:21.160Z,16.00
2018-08-19T01:54:50.455Z,17.00
2018-08-19T01:57:21.662Z,17.67
2018-08-19T01:59:52.025Z,14.33
2018-08-19T02:02:21.338Z,14.00
2018-08-19T02:04:57.084Z,13.00
2018-08-19T02:07:29.500Z,16.33
2018-08-19T02:10:04.632Z,13.00
2018-08-19T02:12:39.035Z,16.00
2018-08-19T02:15:12.011Z,16.33
2018-08-19T02:17:46.513Z,17.33
2018-08-19T02:20:16.942Z,17.33
2018-08-19T02:22:52.243Z,15.67
2018-08-19T02:25:25.954Z,15.67
2018-08-19T02:27:55.808Z,15.00
2018-08-19T02:30:25.115Z,16.00
2018-08-19T02:32:55.864Z,13.00
2018-08-19T02:35:25.161Z,15.67
2018-08-19T02:37:55.003Z,12.67
2018-08-19T02:40:32.146Z,16.33
2018-08-19T02:43:02.926Z,13.00
2018-08-19T02:45:34.174Z,13.00
2018-08-19T02:48:05.330Z,16.00
2018-08-19T02:50:34.927Z,12.67
2018-08-19T02:53:04.797Z,15.33
2018-08-19T02:55:34.053Z,15.33
2018-08-19T02:58:08.692Z,15.33
2018-08-19T03:00:40.361Z,14.67
2018-08-19T03:03:09.894Z,15.33
2018-08-19T03:05:41.565Z,13.00
2018-08-19T03:08:15.238Z,14.67
2018-08-19T03:10:44.662Z,16.00
2018-08-19T03:13:14.618Z,16.33
2018-08-19T03:15:45.514Z,17.33
2018-08-19T03:18:15.353Z,13.00
2018-08-19T03:20:46.495Z,14.67
2018-08-19T03:23:16.043Z,17.33
2018-08-19T03:25:46.243Z,19.00
2018-08-19T03:28:15.891Z,16.00
2018-08-19T03:30:50.575Z,15.67
2018-08-19T03:33:21.769Z,13.67
2018-08-19T03:35:51.052Z,15.67
2018-08-19T03:38:20.392Z,16.00
2018-08-19T03:40:49.768Z,17.67
2018-08-19T03:43:19.673Z,16.33
2018-08-19T03:45:49.021Z,16.00
2018-08-19T03:48:19.218Z,12.67
2018-08-19T03:50:48.654Z,15.00
2018-08-19T03:53:18.757Z,15.67
2018-08-19T03:55:48.879Z,17.33
2018-08-19T03:58:18.685Z,20.33
2018-08-19T04:00:49.325Z,14.67
2018-08-19T04:03:23.935Z,15.00
2018-08-19T04:05:56.174Z,19.00
2018-08-19T04:08:40.391Z,19.67
2018-08-19T04:11:10.538Z,17.33
2018-08-19T04:13:41.276Z,19.00
2018-08-19T04:16:12.247Z,18.67
2018-08-19T04:18:43.665Z,18.67
2018-08-19T04:21:14.132Z,15.67
2018-08-19T04:23:45.625Z,16.67
2018-08-19T04:26:16.344Z,18.00
2018-08-19T04:28:46.625Z,16.00
2018-08-19T04:31:21.033Z,20.67
2018-08-19T04:33:51.118Z,17.33
2018-08-19T04:36:23.677Z,19.33
2018-08-19T04:38:54.103Z,16.00
2018-08-19T04:41:24.831Z,19.33
2018-08-19T04:43:57.647Z,19.00
2018-08-19T04:46:47.281Z,20.33
2018-08-19T04:49:17.763Z,19.00
2018-08-19T04:51:49.095Z,19.33
2018-08-19T04:54:21.720Z,17.33
2018-08-19T04:56:54.472Z,17.67
2018-08-19T04:59:28.019Z,16.67
2018-08-19T05:02:00.688Z,16.33
2018-08-19T05:04:35.240Z,19.00
2018-08-19T05:07:13.084Z,16.67
2018-08-19T05:09:45.893Z,16.00
2018-08-19T05:12:20.098Z,18.00
2018-08-19T05:14:52.826Z,19.67
2018-08-19T05:17:25.463Z,16.00
2018-08-19T05:20:07.480Z,16.00
2018-08-19T05:22:41.284Z,18.33
2018-08-19T05:25:15.642Z,20.33
2018-08-19T05:27:53.730Z,17.00
2018-08-19T05:30:27.536Z,18.33
2018-08-19T05:33:03.881Z,17.00
2018-08-19T05:35:36.998Z,18.00
2018-08-19T05:38:10.006Z,19.00
2018-08-19T05:40:55.024Z,15.67
2018-08-19T05:43:26.448Z,15.67
2018-08-19T05:46:02.639Z,16.67
2018-08-19T05:48:34.647Z,17.00
2018-08-19T05:51:06.712Z,20.00
2018-08-19T05:53:42.935Z,16.33
2018-08-19T05:56:16.216Z,16.00
2018-08-19T05:58:49.364Z,17.00
2018-08-19T06:01:27.535Z,15.00
2018-08-19T06:03:59.881Z,17.67
2018-08-19T06:06:32.039Z,20.00
2018-08-19T06:09:05.223Z,18.00
2018-08-19T06:11:40.245Z,18.67
2018-08-19T06:14:17.228Z,18.00
2018-08-19T06:16:50.642Z,17.67
2018-08-19T06:19:24.119Z,14.00
2018-08-19T06:21:56.907Z,19.00
2018-08-19T06:26:55.250Z,17.50
2018-08-19T06:29:39.660Z,14.00
2018-08-19T06:32:17.006Z,14.67
2018-08-19T06:34:50.238Z,20.00
2018-08-19T06:37:23.187Z,16.33
2018-08-19T06:39:55.016Z,15.00
2018-08-19T06:42:29.272Z,21.00
2018-08-19T06:45:00.734Z,16.33
2018-08-19T06:47:33.877Z,17.00
2018-08-19T06:50:15.759Z,14.00
2018-08-19T06:52:50.692Z,15.00
2018-08-19T06:55:23.380Z,17.00
2018-08-19T06:58:02.486Z,16.00
2018-08-19T07:00:35.912Z,16.33
2018-08-19T07:03:09.890Z,18.00
2018-08-19T07:05:44.798Z,15.67
2018-08-19T07:08:18.799Z,18.67
2018-08-19T07:10:54.734Z,17.00
2018-08-19T07:13:25.794Z,15.00
2018-08-19T07:16:02.804Z,15.00
2018-08-19T07:18:35.527Z,16.33
2018-08-19T07:21:08.872Z,15.33
2018-08-19T07:23:43.702Z,15.33
2018-08-19T07:26:18.085Z,15.00
2018-08-19T07:28:51.777Z,13.33
2018-08-19T07:31:26.694Z,14.33
2018-08-19T07:34:00.395Z,13.00
2018-08-19T07:36:33.204Z,15.67
2018-08-19T07:39:08.922Z,18.00
2018-08-19T07:41:42.524Z,17.33
2018-08-19T07:44:18.009Z,14.67
2018-08-19T07:46:51.953Z,13.33
2018-08-19T07:49:28.457Z,16.33
2018-08-19T07:52:00.950Z,17.00
2018-08-19T07:54:34.617Z,15.33
2018-08-19T07:57:13.414Z,14.00
2018-08-19T07:59:49.545Z,14.67
2018-08-19T08:02:22.299Z,14.33
2018-08-19T08:04:59.432Z,18.00
2018-08-19T08:07:34.881Z,15.00
2018-08-19T08:10:09.092Z,14.67
2018-08-19T08:12:43.570Z,14.00
2018-08-19T08:15:28.290Z,12.67
2018-08-19T08:18:00.531Z,16.00
2018-08-19T08:20:35.210Z,14.33
2018-08-19T08:23:21.259Z,14.67
2018-08-19T08:25:54.887Z,13.67
2018-08-19T08:28:28.224Z,15.00
2018-08-19T08:31:00.642Z,15.67
2018-08-19T08:33:36.134Z,16.00
2018-08-19T08:36:12.273Z,15.00
2018-08-19T08:38:46.599Z,15.33
2018-08-19T08:41:19.317Z,14.33
2018-08-19T08:43:51.791Z,13.00
2018-08-19T08:46:26.341Z,14.00
2018-08-19T08:49:02.712Z,12.67
2018-08-19T08:51:37.320Z,15.00
2018-08-19T08:54:13.020Z,13.00
2018-08-19T08:56:46.517Z,14.00
2018-08-19T08:59:21.761Z,14.00
2018-08-19T09:01:54.490Z,12.00
2018-08-19T09:04:29.015Z,12.33
2018-08-19T09:07:01.262Z,12.00
2018-08-19T09:09:31.645Z,12.33
2018-08-19T09:12:06.173Z,14.33
2018-08-19T09:14:40.635Z,12.00
2018-08-19T09:17:17.855Z,13.33
2018-08-19T09:19:52.651Z,15.00
2018-08-19T09:22:24.921Z,15.00
2018-08-19T09:24:58.697Z,13.33
2018-08-19T09:27:33.200Z,15.00
2018-08-19T09:30:49.167Z,15.33
2018-08-19T09:33:30.284Z,14.33
2018-08-19T09:36:11.337Z,15.00
2018-08-19T09:38:44.258Z,14.33
2018-08-19T09:41:19.483Z,15.00
2018-08-19T09:43:53.026Z,16.67
2018-08-19T09:46:26.377Z,16.00
2018-08-19T09:49:00.633Z,14.67
2018-08-19T09:51:33.760Z,13.00
2018-08-19T09:54:07.073Z,12.33
2018-08-19T09:56:45.429Z,13.67
2018-08-19T09:59:21.711Z,12.67
2018-08-19T10:01:57.468Z,14.00
2018-08-19T10:04:32.979Z,13.00
2018-08-19T10:07:11.572Z,11.33
2018-08-19T10:09:46.987Z,14.00
2018-08-19T10:12:21.424Z,13.67
2018-08-19T10:14:55.980Z,12.00
2018-08-19T10:17:30.240Z,11.00
2018-08-19T10:20:03.178Z,12.33
2018-08-19T10:22:42.024Z,10.75
2018-08-19T10:25:20.739Z,9.00
2018-08-19T10:27:55.943Z,8.80
2018-08-19T10:30:31.555Z,10.00
2018-08-19T10:33:11.914Z,10.33
2018-08-19T10:35:45.281Z,10.00
2018-08-19T10:38:20.063Z,9.00
2018-08-19T10:41:07.471Z,9.00
2018-08-19T10:43:40.590Z,9.00
2018-08-19T10:46:14.765Z,9.20
2018-08-19T10:48:59.991Z,11.00
2018-08-19T10:51:32.528Z,10.00
2018-08-19T10:54:05.522Z,8.00
2018-08-19T10:56:40.414Z,7.00
2018-08-19T10:59:17.477Z,8.00
2018-08-19T11:01:51.007Z,8.20
2018-08-19T11:04:24.449Z,8.00
2018-08-19T11:06:58.296Z,7.33
2018-08-19T11:09:33.655Z,8.00
2018-08-19T11:12:07.195Z,8.00
2018-08-19T11:14:42.011Z,7.80
2018-08-19T11:17:16.360Z,9.00
2018-08-19T11:19:55.618Z,7.60
2018-08-19T11:22:31.703Z,8.33
2018-08-19T11:25:08.644Z,8.20
2018-08-19T11:27:41.410Z,9.00
2018-08-19T11:30:22.757Z,9.00
2018-08-19T11:32:56.500Z,7.33
2018-08-19T11:35:34.773Z,9.00
2018-08-19T11:38:08.020Z,9.33
2018-08-19T11:40:49.842Z,8.00
2018-08-19T11:43:25.917Z,10.20
2018-08-19T11:46:00.380Z,9.00
2018-08-19T11:48:34.670Z,10.00
2018-08-19T11:51:09.711Z,11.00
2018-08-19T11:53:42.795Z,10.00
2018-08-19T11:56:15.848Z,9.67
2018-08-19T11:58:52.978Z,11.67
2018-08-19T12:01:27.749Z,9.33
2018-08-19T12:04:08.489Z,9.33
2018-08-19T12:06:42.906Z,9.67
2018-08-19T12:09:21.999Z,9.67
2018-08-19T12:11:56.341Z,8.00
2018-08-19T12:14:30.461Z,8.00
2018-08-19T12:17:05.427Z,9.67
2018-08-19T12:19:43.612Z,11.33
2018-08-19T12:22:25.373Z,8.00
2018-08-19T12:25:02.618Z,8.33
2018-08-19T12:27:38.736Z,9.00
2018-08-19T12:30:23.392Z,6.67
2018-08-19T12:33:05.087Z,8.40
2018-08-19T12:35:40.604Z,9.00
2018-08-19T12:38:16.315Z,8.67
2018-08-19T12:40:52.797Z,7.40
2018-08-19T12:43:37.828Z,7.20
2018-08-19T12:46:27.467Z,8.00
2018-08-19T12:51:52.505Z,7.00
2018-08-19T12:54:28.539Z,6.00
2018-08-19T12:57:05.357Z,8.00
2018-08-19T12:59:45.440Z,8.80
2018-08-19T13:02:31.468Z,7.60
2018-08-19T13:05:07.709Z,8.00
2018-08-19T13:07:50.996Z,7.20
2018-08-19T13:10:38.134Z,7.80
2018-08-19T13:13:14.311Z,7.80
2018-08-19T13:15:54.517Z,6.00
2018-08-19T13:21:18.811Z,9.00
2018-08-19T13:23:56.975Z,8.00
2018-08-19T13:26:32.292Z,8.00
2018-08-19T13:29:09.520Z,8.00
2018-08-19T13:31:46.908Z,7.60
2018-08-19T13:34:33.188Z,7.20
2018-08-19T13:37:10.865Z,7.60
2018-08-19T13:39:51.214Z,6.40
2018-08-19T13:42:27.295Z,7.40
2018-08-19T13:45:18.322Z,7.00
2018-08-19T13:47:56.938Z,8.40
2018-08-19T13:50:30.733Z,7.00
2018-08-19T13:53:12.856Z,7.20
2018-08-19T13:55:47.330Z,9.20
2018-08-19T13:58:23.387Z,8.00
2018-08-19T14:00:55.686Z,8.00
2018-08-19T14:03:31.411Z,6.80
2018-08-19T14:06:09.244Z,8.20
2018-08-19T14:08:47.733Z,6.20
2018-08-19T14:11:25.026Z,7.00
2018-08-19T14:14:00.320Z,6.40
2018-08-19T14:16:44.302Z,7.00
2018-08-19T14:19:19.817Z,7.60
2018-08-19T14:22:01.685Z,6.80
2018-08-19T14:24:36.809Z,6.67
2018-08-19T14:27:14.370Z,6.60
2018-08-19T14:29:52.536Z,5.80
2018-08-19T14:32:39.683Z,6.20
2018-08-19T14:35:15.490Z,7.00
2018-08-19T14:37:56.437Z,6.29
2018-08-19T14:40:31.677Z,6.00
2018-08-19T14:43:10.219Z,6.00
2018-08-19T14:45:48.060Z,7.00
2018-08-19T14:48:27.565Z,5.60
2018-08-19T14:51:01.155Z,7.60
2018-08-19T14:53:34.013Z,8.00
2018-08-19T14:56:18.907Z,7.20
2018-08-19T14:59:00.990Z,6.50
2018-08-19T15:01:35.955Z,5.86
2018-08-19T15:04:17.750Z,7.20
2018-08-19T15:06:52.214Z,7.00
2018-08-19T15:09:34.650Z,7.80
2018-08-19T15:12:22.731Z,6.40
2018-08-19T15:15:04.372Z,5.80
2018-08-19T15:17:40.073Z,6.40
2018-08-19T15:20:21.730Z,5.20
2018-08-19T15:23:06.939Z,6.29
2018-08-19T15:25:42.911Z,6.00
2018-08-19T15:28:20.273Z,7.00
2018-08-19T15:31:03.365Z,6.60
2018-08-19T15:33:40.548Z,6.14
2018-08-19T15:36:15.487Z,8.60
2018-08-19T15:38:50.939Z,6.40
2018-08-19T15:41:27.516Z,6.40
2018-08-19T15:44:03.733Z,6.00
2018-08-19T15:46:38.533Z,6.20
2018-08-19T15:49:15.650Z,6.40
2018-08-19T15:51:49.268Z,5.40
2018-08-19T15:54:25.841Z,5.00
2018-08-19T15:57:08.609Z,7.80
2018-08-19T15:59:40.847Z,6.20
2018-08-19T16:02:17.588Z,7.00
2018-08-19T16:04:59.927Z,6.40
2018-08-19T16:07:37.614Z,7.20
2018-08-19T16:10:11.740Z,6.00
2018-08-19T16:12:51.626Z,6.60
2018-08-19T16:15:34.024Z,7.20
2018-08-19T16:18:10.347Z,6.00
2018-08-19T16:20:45.857Z,5.20
2018-08-19T16:23:20.927Z,4.71
2018-08-19T16:25:56.583Z,4.40
2018-08-19T16:28:31.406Z,6.20
2018-08-19T16:31:04.709Z,5.83
2018-08-19T16:33:39.048Z,7.80
2018-08-19T16:36:12.220Z,8.67
2018-08-19T16:38:48.066Z,6.00
2018-08-19T16:41:22.636Z,7.20
2018-08-19T16:43:58.613Z,5.60
2018-08-19T16:46:31.848Z,6.40
2018-08-19T16:49:09.082Z,5.80
2018-08-19T16:51:42.046Z,5.80
2018-08-19T16:54:19.168Z,7.60
2018-08-19T16:56:54.359Z,6.80
2018-08-19T16:59:29.028Z,6.00
2018-08-19T17:02:01.290Z,8.00
2018-08-19T17:04:40.352Z,4.40
2018-08-19T17:07:15.480Z,5.67
2018-08-19T17:09:49.662Z,8.60
2018-08-19T17:12:26.241Z,5.40
2018-08-19T17:15:06.372Z,6.00
2018-08-19T17:17:38.641Z,5.80
2018-08-19T17:20:16.450Z,6.00
2018-08-19T17:22:53.691Z,5.40
2018-08-19T17:25:30.396Z,5.60
2018-08-19T17:28:08.532Z,6.60
2018-08-19T17:31:00.518Z,6.80
2018-08-19T17:36:27.836Z,5.80
2018-08-19T17:39:10.705Z,5.80
2018-08-19T17:41:44.541Z,5.71
2018-08-19T17:44:20.504Z,5.20
2018-08-19T17:46:57.549Z,5.00
2018-08-19T17:49:32.764Z,6.00
2018-08-19T17:52:09.346Z,6.33
2018-08-19T17:54:41.090Z,7.20
2018-08-19T17:57:18.735Z,7.00
2018-08-19T17:59:52.453Z,5.80
2018-08-19T18:02:25.288Z,6.00
2018-08-19T18:05:01.564Z,6.00
2018-08-19T18:07:37.008Z,6.00
2018-08-19T18:10:15.077Z,6.00
2018-08-19T18:12:49.981Z,7.00
2018-08-19T18:15:29.821Z,8.00
2018-08-19T18:18:07.110Z,8.00
2018-08-19T18:20:43.269Z,7.20
2018-08-19T18:23:22.955Z,8.00
2018-08-19T18:25:57.869Z,8.86
2018-08-19T18:28:36.681Z,10.00
2018-08-19T18:31:11.309Z,8.80
2018-08-19T18:33:52.381Z,8.00
2018-08-19T18:36:27.205Z,8.80
2018-08-19T18:39:01.292Z,8.00
2018-08-19T18:41:37.901Z,9.00
2018-08-19T18:44:11.124Z,9.60
2018-08-19T18:46:45.927Z,9.20
2018-08-19T18:49:19.568Z,11.00
2018-08-19T18:51:55.904Z,9.67
2018-08-19T18:54:31.123Z,8.80
2018-08-19T18:57:06.429Z,8.80
2018-08-19T18:59:42.538Z,8.00
2018-08-19T19:02:18.669Z,10.00
2018-08-19T19:04:52.729Z,10.00
2018-08-19T19:07:27.633Z,10.25
2018-08-19T19:09:59.342Z,8.20
2018-08-19T19:12:34.331Z,8.60
2018-08-19T19:15:06.594Z,10.00
2018-08-19T19:17:42.940Z,11.50
2018-08-19T19:20:16.623Z,10.50
2018-08-19T19:22:55.329Z,11.33
2018-08-19T19:25:32.356Z,10.33
2018-08-19T19:28:07.319Z,13.67
2018-08-19T19:30:38.236Z,11.00
2018-08-19T19:33:14.117Z,14.00
2018-08-19T19:35:47.066Z,14.00
2018-08-19T19:38:22.505Z,13.67
2018-08-19T19:40:57.563Z,11.33
2018-08-19T19:43:34.254Z,12.67
2018-08-19T19:46:06.614Z,13.00
2018-08-19T19:48:40.512Z,12.67
2018-08-19T19:51:11.137Z,14.33
2018-08-19T19:53:45.092Z,12.33
2018-08-19T19:56:17.328Z,16.33
2018-08-19T19:58:50.652Z,12.33
2018-08-19T20:01:25.766Z,12.00
2018-08-19T20:03:59.927Z,12.00
2018-08-19T20:06:36.908Z,13.67
2018-08-19T20:09:14.846Z,12.00
2018-08-19T20:11:50.075Z,13.00
2018-08-19T20:14:21.967Z,12.67
2018-08-19T20:17:08.785Z,12.67
2018-08-19T20:19:44.243Z,14.00
2018-08-19T20:22:21.285Z,12.00
2018-08-19T20:25:03.651Z,11.00
2018-08-19T20:27:36.880Z,11.33
2018-08-19T20:30:08.453Z,11.67
2018-08-19T20:32:43.697Z,12.67
2018-08-19T20:35:14.557Z,15.00
2018-08-19T20:37:45.659Z,13.33
2018-08-19T20:40:16.570Z,12.00
2018-08-19T20:42:49.832Z,12.67
2018-08-19T20:45:22.650Z,14.33
2018-08-19T20:47:56.513Z,13.00
2018-08-19T20:50:27.642Z,11.00
2018-08-19T20:52:58.963Z,16.00
2018-08-19T20:55:28.241Z,13.33
2018-08-19T20:57:59.285Z,14.33
2018-08-19T21:00:28.472Z,12.00
2018-08-19T21:03:01.669Z,12.00
2018-08-19T21:05:31.430Z,13.33
2018-08-19T21:08:08.135Z,13.33
2018-08-19T21:10:41.971Z,16.00
2018-08-19T21:13:14.738Z,15.00
2018-08-19T21:15:47.376Z,13.67
2018-08-19T21:18:17.885Z,15.00
2018-08-19T21:20:48.061Z,12.33
2018-08-19T21:23:21.457Z,13.00
2018-08-19T21:25:57.056Z,14.00
2018-08-19T21:28:36.211Z,14.00
2018-08-19T21:31:06.442Z,14.67
2018-08-19T21:33:40.583Z,14.00
2018-08-19T21:36:12.377Z,13.00
2018-08-19T21:38:43.496Z,14.67
2018-08-19T21:41:17.872Z,13.33
2018-08-19T21:43:48.725Z,14.00
2018-08-19T21:46:21.017Z,14.00
2018-08-19T21:48:58.535Z,15.33
2018-08-19T21:51:30.473Z,12.40
2018-08-19T21:54:02.462Z,12.00
2018-08-19T21:56:33.155Z,12.67
2018-08-19T21:59:06.751Z,14.67
2018-08-19T22:01:43.603Z,14.60
2018-08-19T22:04:13.758Z,14.33
2018-08-19T22:06:44.710Z,15.67
2018-08-19T22:09:28.132Z,15.00
2018-08-19T22:11:58.879Z,13.00
2018-08-19T22:14:29.519Z,11.33
2018-08-19T22:17:05.577Z,13.67
2018-08-19T22:19:36.089Z,14.00
2018-08-19T22:22:07.625Z,15.00
2018-08-19T22:24:38.717Z,14.00
2018-08-19T22:27:13.677Z,14.00
2018-08-19T22:29:46.536Z,10.67
2018-08-19T22:32:19.628Z,13.00
2018-08-19T22:34:50.600Z,13.00
2018-08-19T22:37:33.983Z,17.20
2018-08-19T22:40:04.433Z,15.00
2018-08-19T22:42:35.296Z,13.67
2018-08-19T22:45:11.768Z,12.25
2018-08-19T22:47:45.669Z,12.00
2018-08-19T22:50:17.327Z,11.33
2018-08-19T22:52:51.515Z,13.33
2018-08-19T22:55:28.978Z,13.33
2018-08-19T22:58:02.875Z,14.33
2018-08-19T23:00:38.738Z,13.33
2018-08-19T23:03:13.637Z,12.67
2018-08-19T23:05:47.369Z,13.33
2018-08-19T23:08:22.258Z,12.33
2018-08-19T23:10:52.595Z,14.00
2018-08-19T23:13:35.548Z,13.67
2018-08-19T23:16:09.273Z,17.67
2018-08-19T23:18:43.093Z,14.00
2018-08-19T23:21:13.673Z,12.67
2018-08-19T23:23:42.934Z,13.33
2018-08-19T23:26:13.511Z,14.33
2018-08-19T23:28:44.554Z,14.00
2018-08-19T23:31:14.664Z,12.67
2018-08-19T23:33:45.058Z,12.67
2018-08-19T23:36:16.793Z,13.33
2018-08-19T23:38:46.053Z,16.33
2018-08-19T23:41:15.394Z,15.00
2018-08-19T23:43:45.249Z,12.67
2018-08-19T23:46:15.394Z,13.00
2018-08-19T23:48:44.661Z,12.67
2018-08-19T23:51:19.301Z,14.00
2018-08-19T23:53:49.552Z,13.33
2018-08-19T23:56:19.476Z,13.67
2018-08-19T23:58:49.116Z,16.00
